This is the latest recevied weather packets stored in our database for station/object IU7URP-17. If no packets are shown the sender has not sent any weather packets the latest 10 day(s).
| Time | Temp. | Humidity | Pressure | Rain* | Wind** | Luminosity | Snow |
|---|---|---|---|---|---|---|---|
| 1788718707 | 26.67° C | 54% | 1020.7 hPa | - | - | - | - |
| 1788717503 | 27.22° C | 52% | 1020.4 hPa | - | - | - | - |
| 1788715095 | 27.78° C | 46% | 1019.9 hPa | - | - | - | - |
| 1788713891 | 28.89° C | 44% | 1019.7 hPa | - | - | - | - |
| 1788712687 | 30° C | 41% | 1019.6 hPa | - | - | - | - |
| 1788711483 | 31.11° C | 38% | 1019.4 hPa | - | - | - | - |
| 1788710279 | 31.67° C | 34% | 1019.3 hPa | - | - | - | - |
| 1788709075 | 32.78° C | 31% | 1019.2 hPa | - | - | - | - |
| 1788707871 | 33.89° C | 30% | 1019 hPa | - | - | - | - |
| 1788706667 | 34.44° C | 30% | 1018.9 hPa | - | - | - | - |
| 1788705463 | 33.89° C | 29% | 1019.1 hPa | - | - | - | - |
| 1788704259 | 34.44° C | 32% | 1019.2 hPa | - | - | - | - |
| 1788703055 | 34.44° C | 31% | 1019.2 hPa | - | - | - | - |
| 1788701850 | 35° C | 29% | 1019.2 hPa | - | - | - | - |
| 1788700647 | 35.56° C | 27% | 1019.3 hPa | - | - | - | - |
| 1788698237 | 35.56° C | 31% | 1019.4 hPa | - | - | - | - |
| 1788697033 | 35° C | 31% | 1019.4 hPa | - | - | - | - |
| 1788694625 | 36.11° C | 27% | 1019.5 hPa | - | - | - | - |
| 1788692217 | 35.56° C | 28% | 1019.6 hPa | - | - | - | - |
| 1788689809 | 35° C | 32% | 1019.9 hPa | - | - | - | - |
| 1788687401 | 34.44° C | 37% | 1020 hPa | - | - | - | - |
| 1788686197 | 33.89° C | 40% | 1020.1 hPa | - | - | - | - |
| 1788682585 | 33.89° C | 30% | 1020.1 hPa | - | - | - | - |
| 1788681381 | 33.89° C | 34% | 1020 hPa | - | - | - | - |
| 1788680177 | 33.89° C | 34% | 1019.9 hPa | - | - | - | - |
* Rain since midnight (hover to see other rain measurements)
** Current wind speed in m/s (hover to see current wind gust speed)